createdAt,value
2022-12-18T00:00:06.739Z,-1.90
2022-12-18T00:02:33.665Z,-1.88
2022-12-18T00:05:00.411Z,-1.92
2022-12-18T00:07:28.334Z,-1.92
2022-12-18T00:09:56.808Z,-1.92
2022-12-18T00:12:23.392Z,-1.93
2022-12-18T00:14:50.019Z,-1.95
2022-12-18T00:17:16.772Z,-1.93
2022-12-18T00:19:43.426Z,-1.92
2022-12-18T00:22:10.048Z,-1.97
2022-12-18T00:24:36.639Z,-2.00
2022-12-18T00:27:03.422Z,-1.99
2022-12-18T00:29:30.477Z,-1.99
2022-12-18T00:31:57.179Z,-1.98
2022-12-18T00:34:23.752Z,-2.04
2022-12-18T00:36:50.528Z,-2.09
2022-12-18T00:39:17.134Z,-2.08
2022-12-18T00:42:02.439Z,-2.06
2022-12-18T00:44:29.040Z,-2.07
2022-12-18T00:46:55.755Z,-2.09
2022-12-18T00:49:22.392Z,-2.10
2022-12-18T00:51:49.742Z,-2.14
2022-12-18T00:54:18.653Z,-2.16
2022-12-18T00:56:48.977Z,-2.19
2022-12-18T00:59:17.445Z,-2.19
2022-12-18T01:01:44.230Z,-2.18
2022-12-18T01:04:11.078Z,-2.18
2022-12-18T01:06:37.836Z,-2.21
2022-12-18T01:09:04.569Z,-2.22
2022-12-18T01:11:31.917Z,-2.21
2022-12-18T01:14:04.464Z,-2.25
2022-12-18T01:16:31.052Z,-2.25
2022-12-18T01:18:57.735Z,-2.23
2022-12-18T01:21:25.157Z,-2.24
2022-12-18T01:23:53.388Z,-2.20
2022-12-18T01:26:21.491Z,-2.24
2022-12-18T01:28:48.480Z,-2.24
2022-12-18T01:31:32.617Z,-2.24
2022-12-18T01:34:02.270Z,-2.24
2022-12-18T01:36:31.698Z,-2.24
2022-12-18T01:39:00.597Z,-2.26
2022-12-18T01:41:47.751Z,-2.30
2022-12-18T01:44:51.894Z,-2.35
2022-12-18T01:47:33.114Z,-2.36
2022-12-18T01:50:05.879Z,-2.37
2022-12-18T01:52:34.376Z,-2.37
2022-12-18T01:55:02.737Z,-2.44
2022-12-18T01:57:29.837Z,-2.44
2022-12-18T02:00:00.812Z,-2.46
2022-12-18T02:02:30.032Z,-2.49
2022-12-18T02:04:56.758Z,-2.52
2022-12-18T02:07:43.716Z,-2.53
2022-12-18T02:10:30.013Z,-2.57
2022-12-18T02:13:10.429Z,-2.62
2022-12-18T02:15:47.083Z,-2.69
2022-12-18T02:18:22.278Z,-2.73
2022-12-18T02:20:54.877Z,-2.75
2022-12-18T02:23:28.161Z,-2.81
2022-12-18T02:26:07.054Z,-2.81
2022-12-18T02:28:40.003Z,-2.87
2022-12-18T02:31:12.206Z,-2.89
2022-12-18T02:33:41.768Z,-2.92
2022-12-18T02:36:11.864Z,-2.99
2022-12-18T02:38:39.363Z,-3.03
2022-12-18T02:41:07.248Z,-3.03
2022-12-18T02:43:34.178Z,-3.07
2022-12-18T02:46:02.009Z,-3.09
2022-12-18T02:48:34.731Z,-3.13
2022-12-18T02:51:17.055Z,-3.16
2022-12-18T02:53:53.604Z,-3.19
2022-12-18T02:56:27.497Z,-3.19
2022-12-18T02:59:03.495Z,-3.21
2022-12-18T03:02:02.978Z,-3.23
2022-12-18T03:04:39.655Z,-3.27
2022-12-18T03:07:12.514Z,-3.31
2022-12-18T03:09:43.949Z,-3.34
2022-12-18T03:12:24.701Z,-3.38
2022-12-18T03:14:57.932Z,-3.42
2022-12-18T03:17:27.785Z,-3.45
2022-12-18T03:19:57.496Z,-3.47
2022-12-18T03:22:28.837Z,-3.50
2022-12-18T03:24:58.379Z,-3.52
2022-12-18T03:27:28.097Z,-3.53
2022-12-18T03:30:08.391Z,-3.57
2022-12-18T03:32:43.403Z,-3.61
2022-12-18T03:35:13.089Z,-3.60
2022-12-18T03:37:40.006Z,-3.58
2022-12-18T03:40:07.145Z,-3.60
2022-12-18T03:42:54.728Z,-3.61
2022-12-18T03:45:42.828Z,-3.58
2022-12-18T03:48:18.470Z,-3.58
2022-12-18T03:50:49.836Z,-3.58
2022-12-18T03:53:27.400Z,-3.62
2022-12-18T03:55:54.882Z,-3.67
2022-12-18T03:58:25.725Z,-3.70
2022-12-18T04:00:57.069Z,-3.71
2022-12-18T04:03:26.620Z,-3.73
2022-12-18T04:05:55.606Z,-3.74
2022-12-18T04:08:23.147Z,-3.76
2022-12-18T04:10:49.744Z,-3.73
2022-12-18T04:13:24.842Z,-3.74
2022-12-18T04:15:51.986Z,-3.77
2022-12-18T04:18:18.597Z,-3.78
2022-12-18T04:20:45.167Z,-3.81
2022-12-18T04:23:12.053Z,-3.82
2022-12-18T04:25:38.597Z,-3.81
2022-12-18T04:28:05.149Z,-3.78
2022-12-18T04:30:31.656Z,-3.78
2022-12-18T04:32:58.238Z,-3.80
2022-12-18T04:35:24.821Z,-3.80
2022-12-18T04:37:51.367Z,-3.78
2022-12-18T04:40:18.100Z,-3.81
2022-12-18T04:42:44.743Z,-3.82
2022-12-18T04:45:11.643Z,-3.84
2022-12-18T04:47:38.258Z,-3.88
2022-12-18T04:50:05.313Z,-3.90
2022-12-18T04:52:31.843Z,-3.91
2022-12-18T04:54:58.482Z,-3.91
2022-12-18T04:57:26.526Z,-3.92
2022-12-18T04:59:53.078Z,-3.95
2022-12-18T05:02:19.706Z,-3.94
2022-12-18T05:04:46.357Z,-3.95
2022-12-18T05:07:12.847Z,-3.92
2022-12-18T05:09:39.466Z,-3.95
2022-12-18T05:12:06.226Z,-3.96
2022-12-18T05:14:33.786Z,-4.01
2022-12-18T05:17:01.218Z,-4.03
2022-12-18T05:19:27.969Z,-4.04
2022-12-18T05:21:54.561Z,-4.04
2022-12-18T05:24:21.131Z,-4.06
2022-12-18T05:26:47.646Z,-4.05
2022-12-18T05:29:14.266Z,-4.04
2022-12-18T05:31:41.120Z,-4.03
2022-12-18T05:34:09.531Z,-4.05
2022-12-18T05:36:37.276Z,-4.03
2022-12-18T05:39:04.206Z,-4.02
2022-12-18T05:41:31.155Z,-4.01
2022-12-18T05:43:57.801Z,-4.03
2022-12-18T05:46:25.285Z,-4.06
2022-12-18T05:48:52.548Z,-4.08
2022-12-18T05:51:23.110Z,-4.08
2022-12-18T05:53:49.931Z,-4.09
2022-12-18T05:56:21.927Z,-4.08
2022-12-18T05:58:48.745Z,-4.10
2022-12-18T06:01:19.885Z,-4.07
2022-12-18T06:03:47.307Z,-4.06
2022-12-18T06:06:18.689Z,-4.07
2022-12-18T06:08:46.655Z,-4.08
2022-12-18T06:11:14.297Z,-4.07
2022-12-18T06:13:41.236Z,-4.07
2022-12-18T06:16:09.201Z,-4.06
2022-12-18T06:18:41.666Z,-4.10
2022-12-18T06:21:08.360Z,-4.15
2022-12-18T06:23:35.706Z,-4.18
2022-12-18T06:26:08.361Z,-4.21
2022-12-18T06:28:34.965Z,-4.24
2022-12-18T06:31:01.612Z,-4.26
2022-12-18T06:33:29.131Z,-4.26
2022-12-18T06:36:01.708Z,-4.25
2022-12-18T06:38:28.378Z,-4.24
2022-12-18T06:40:55.047Z,-4.28
2022-12-18T06:43:21.622Z,-4.29
2022-12-18T06:45:53.558Z,-4.30
2022-12-18T06:48:20.908Z,-4.31
2022-12-18T06:50:47.766Z,-4.33
2022-12-18T06:53:14.516Z,-4.36
2022-12-18T06:55:41.647Z,-4.39
2022-12-18T06:58:08.684Z,-4.42
2022-12-18T07:00:37.362Z,-4.45
2022-12-18T07:03:03.994Z,-4.47
2022-12-18T07:05:30.595Z,-4.49
2022-12-18T07:07:57.139Z,-4.49
2022-12-18T07:10:23.681Z,-4.50
2022-12-18T07:12:50.246Z,-4.52
2022-12-18T07:15:16.797Z,-4.53
2022-12-18T07:17:43.315Z,-4.54
2022-12-18T07:20:10.703Z,-4.52
2022-12-18T07:22:37.206Z,-4.53
2022-12-18T07:25:03.910Z,-4.54
2022-12-18T07:27:30.457Z,-4.53
2022-12-18T07:29:58.188Z,-4.52
2022-12-18T07:32:24.703Z,-4.53
2022-12-18T07:34:54.327Z,-4.55
2022-12-18T07:37:21.566Z,-4.58
2022-12-18T07:39:48.096Z,-4.60
2022-12-18T07:42:31.567Z,-4.59
2022-12-18T07:44:58.939Z,-4.56
2022-12-18T07:47:25.577Z,-4.59
2022-12-18T07:49:52.415Z,-4.60
2022-12-18T07:52:24.331Z,-4.60
2022-12-18T07:54:52.597Z,-4.61
2022-12-18T07:57:41.830Z,-4.61
2022-12-18T08:00:06.248Z,-4.59
2022-12-18T08:02:33.046Z,-4.57
2022-12-18T08:04:59.775Z,-4.54
2022-12-18T08:07:37.115Z,-4.52
2022-12-18T08:10:07.491Z,-4.48
2022-12-18T08:12:42.292Z,-4.42
2022-12-18T08:15:10.027Z,-4.39
2022-12-18T08:17:36.500Z,-4.34
2022-12-18T08:20:03.134Z,-4.31
2022-12-18T08:22:30.493Z,-4.30
2022-12-18T08:24:56.988Z,-4.29
2022-12-18T08:27:31.216Z,-4.24
2022-12-18T08:29:58.613Z,-4.23
2022-12-18T08:32:27.799Z,-4.20
2022-12-18T08:34:54.510Z,-4.17
2022-12-18T08:37:21.087Z,-4.17
2022-12-18T08:39:47.678Z,-4.14
2022-12-18T08:42:32.997Z,-4.12
2022-12-18T08:44:59.525Z,-4.11
2022-12-18T08:47:27.949Z,-4.09
2022-12-18T08:49:55.784Z,-4.08
2022-12-18T08:52:23.238Z,-4.08
2022-12-18T08:54:49.773Z,-4.06
2022-12-18T08:57:17.080Z,-4.04
2022-12-18T08:59:43.791Z,-4.03
2022-12-18T09:02:12.449Z,-3.98
2022-12-18T09:04:40.761Z,-3.91
2022-12-18T09:07:08.250Z,-3.85
2022-12-18T09:09:34.953Z,-3.81
2022-12-18T09:12:01.677Z,-3.77
2022-12-18T09:14:28.237Z,-3.72
2022-12-18T09:16:54.868Z,-3.68
2022-12-18T09:19:21.741Z,-3.61
2022-12-18T09:21:49.372Z,-3.56
2022-12-18T09:24:16.968Z,-3.48
2022-12-18T09:26:47.038Z,-3.40
2022-12-18T09:29:15.514Z,-3.34
2022-12-18T09:31:42.920Z,-3.30
2022-12-18T09:34:09.491Z,-3.25
2022-12-18T09:36:36.154Z,-3.20
2022-12-18T09:39:07.867Z,-3.15
2022-12-18T09:41:41.953Z,-3.10
2022-12-18T09:44:24.277Z,-3.05
2022-12-18T09:46:57.976Z,-2.99
2022-12-18T09:49:27.586Z,-2.92
2022-12-18T09:52:02.480Z,-2.86
2022-12-18T09:54:39.306Z,-2.81
2022-12-18T09:57:06.383Z,-2.78
2022-12-18T09:59:41.355Z,-2.74
2022-12-18T10:02:24.062Z,-2.69
2022-12-18T10:05:09.349Z,-2.62
2022-12-18T10:07:57.132Z,-2.52
2022-12-18T10:10:30.681Z,-2.46
2022-12-18T10:13:10.752Z,-2.41
2022-12-18T10:15:59.451Z,-2.36
2022-12-18T10:18:39.915Z,-2.28
2022-12-18T10:21:20.258Z,-2.23
2022-12-18T10:24:02.632Z,-2.16
2022-12-18T10:26:29.239Z,-2.10
2022-12-18T10:29:02.157Z,-2.04
2022-12-18T10:31:32.105Z,-1.98
2022-12-18T10:33:58.726Z,-1.93
2022-12-18T10:36:25.659Z,-1.87
2022-12-18T10:38:52.492Z,-1.83
2022-12-18T10:41:19.902Z,-1.79
2022-12-18T10:43:48.810Z,-1.74
2022-12-18T10:46:18.984Z,-1.70
2022-12-18T10:48:48.622Z,-1.67
2022-12-18T10:51:31.410Z,-1.62
2022-12-18T10:54:01.703Z,-1.58
2022-12-18T10:56:32.269Z,-1.52
2022-12-18T10:59:01.978Z,-1.47
2022-12-18T11:01:32.132Z,-1.42
2022-12-18T11:04:02.044Z,-1.38
2022-12-18T11:06:30.343Z,-1.33
2022-12-18T11:09:13.169Z,-1.28
2022-12-18T11:11:41.902Z,-1.23
2022-12-18T11:14:19.663Z,-1.19
2022-12-18T11:17:23.722Z,-1.15
2022-12-18T11:19:39.135Z,-1.11
2022-12-18T11:22:22.119Z,-1.09
2022-12-18T11:25:30.256Z,-1.04
2022-12-18T11:27:52.770Z,-0.99
2022-12-18T11:30:48.186Z,-0.92
2022-12-18T11:33:21.917Z,-0.87
2022-12-18T11:36:04.797Z,-0.85
2022-12-18T11:38:36.141Z,-0.81
2022-12-18T11:41:48.162Z,-0.80
2022-12-18T11:44:21.248Z,-0.76
2022-12-18T11:46:53.033Z,-0.72
2022-12-18T11:49:34.241Z,-0.69
2022-12-18T11:52:16.637Z,-0.65
2022-12-18T11:54:43.397Z,-0.61
2022-12-18T11:57:22.665Z,-0.60
2022-12-18T12:00:03.752Z,-0.59
2022-12-18T12:02:58.175Z,-0.58
2022-12-18T12:05:35.511Z,-0.56
2022-12-18T12:08:14.827Z,-0.54
2022-12-18T12:11:00.459Z,-0.51
2022-12-18T12:13:42.129Z,-0.51
2022-12-18T12:16:21.446Z,-0.47
2022-12-18T12:19:01.064Z,-0.45
2022-12-18T12:21:41.548Z,-0.41
2022-12-18T12:24:48.194Z,-0.40
2022-12-18T12:28:02.002Z,-0.36
2022-12-18T12:31:01.169Z,-0.33
2022-12-18T12:33:54.808Z,-0.28
2022-12-18T12:47:17.210Z,-0.18
2022-12-18T13:06:59.192Z,-0.06
2022-12-18T14:36:38.782Z,0.15
2022-12-18T15:39:21.472Z,0.07
2022-12-18T15:44:56.789Z,0.10
2022-12-18T15:47:23.540Z,0.10
2022-12-18T15:49:50.232Z,0.06
2022-12-18T15:52:26.959Z,0.06
2022-12-18T15:55:27.947Z,0.07
2022-12-18T16:22:32.825Z,0.05
2022-12-18T16:31:38.506Z,0.04
2022-12-18T16:48:49.364Z,0.12
2022-12-18T16:54:43.376Z,0.14
2022-12-18T16:58:06.449Z,0.18
2022-12-18T17:07:26.670Z,0.20
2022-12-18T17:11:10.782Z,0.21
2022-12-18T17:14:26.299Z,0.21
2022-12-18T17:20:30.112Z,0.23
2022-12-18T18:04:31.844Z,0.29
2022-12-18T18:06:58.676Z,0.30
2022-12-18T18:15:13.907Z,0.34
2022-12-18T18:17:40.715Z,0.34
2022-12-18T18:20:10.990Z,0.33
2022-12-18T18:31:05.909Z,0.38
2022-12-18T18:58:47.467Z,0.48
2022-12-18T19:01:17.604Z,0.50
2022-12-18T19:03:45.803Z,0.50
2022-12-18T19:06:18.114Z,0.52
2022-12-18T19:08:47.519Z,0.54
2022-12-18T19:11:36.581Z,0.52
2022-12-18T19:14:06.499Z,0.54
2022-12-18T19:16:34.688Z,0.55
2022-12-18T19:19:02.761Z,0.56
2022-12-18T19:21:31.408Z,0.58
2022-12-18T19:24:01.726Z,0.58
2022-12-18T19:26:28.946Z,0.60
2022-12-18T19:29:02.331Z,0.61
2022-12-18T19:31:34.829Z,0.64
2022-12-18T19:34:02.568Z,0.66
2022-12-18T19:36:30.449Z,0.67
2022-12-18T19:39:00.349Z,0.68
2022-12-18T19:41:31.317Z,0.68
2022-12-18T19:44:00.133Z,0.69
2022-12-18T19:46:34.109Z,0.70
2022-12-18T19:49:01.131Z,0.71
2022-12-18T19:51:29.242Z,0.74
2022-12-18T19:53:59.294Z,0.75
2022-12-18T19:56:30.835Z,0.77
2022-12-18T19:58:57.791Z,0.77
2022-12-18T20:01:25.819Z,0.77
2022-12-18T20:03:54.465Z,0.73
2022-12-18T20:06:34.406Z,0.74
2022-12-18T20:09:06.214Z,0.71
2022-12-18T20:11:41.339Z,0.72
2022-12-18T20:14:08.648Z,0.71
2022-12-18T20:16:35.579Z,0.69
2022-12-18T20:19:02.595Z,0.69
2022-12-18T20:21:29.426Z,0.69
2022-12-18T20:23:56.262Z,0.70
2022-12-18T20:26:23.440Z,0.70
2022-12-18T20:28:50.239Z,0.70
2022-12-18T20:31:19.650Z,0.70
2022-12-18T20:33:48.625Z,0.70
2022-12-18T20:36:21.418Z,0.72
2022-12-18T20:38:52.950Z,0.74
2022-12-18T20:41:24.634Z,0.71
2022-12-18T20:43:52.558Z,0.71
2022-12-18T20:46:20.945Z,0.70
2022-12-18T20:48:48.298Z,0.70
2022-12-18T20:51:19.366Z,0.69
2022-12-18T20:53:48.572Z,0.69
2022-12-18T20:56:22.170Z,0.69
2022-12-18T20:59:33.717Z,0.67
2022-12-18T21:02:00.798Z,0.68
2022-12-18T21:10:27.828Z,0.69
2022-12-18T21:13:14.632Z,0.68
2022-12-18T21:15:53.529Z,0.69
2022-12-18T21:18:22.146Z,0.70
2022-12-18T21:20:51.167Z,0.72
2022-12-18T21:23:18.381Z,0.72
2022-12-18T21:25:56.156Z,0.74
2022-12-18T21:28:25.627Z,0.71
2022-12-18T21:39:08.773Z,0.76
2022-12-18T21:42:02.104Z,0.73
2022-12-18T21:44:29.768Z,0.75
2022-12-18T21:47:09.401Z,0.73
2022-12-18T21:49:43.866Z,0.74
2022-12-18T21:52:11.210Z,0.73
2022-12-18T21:54:38.078Z,0.78
2022-12-18T21:57:06.404Z,0.78
2022-12-18T21:59:35.655Z,0.80
2022-12-18T22:02:06.786Z,0.81
2022-12-18T22:04:36.893Z,0.81
2022-12-18T22:07:05.558Z,0.81
2022-12-18T22:09:43.593Z,0.82
2022-12-18T22:12:44.434Z,0.85
2022-12-18T22:15:26.663Z,0.88
2022-12-18T22:17:59.966Z,0.86
2022-12-18T22:20:27.106Z,0.87
2022-12-18T22:22:53.803Z,0.87
2022-12-18T22:25:20.377Z,0.86
2022-12-18T22:28:06.964Z,0.85
2022-12-18T22:30:35.177Z,0.85
2022-12-18T22:33:03.606Z,0.86
2022-12-18T22:35:30.269Z,0.85
2022-12-18T22:37:59.284Z,0.87
2022-12-18T22:40:26.800Z,0.87
2022-12-18T22:42:54.666Z,0.90
2022-12-18T22:45:22.320Z,0.89
2022-12-18T22:47:49.004Z,0.87
2022-12-18T22:50:15.629Z,0.89
2022-12-18T22:52:42.515Z,0.88
2022-12-18T22:55:09.394Z,0.89
2022-12-18T22:57:36.139Z,0.90
2022-12-18T23:00:05.642Z,0.90
2022-12-18T23:02:32.299Z,0.90
2022-12-18T23:04:58.989Z,0.93
2022-12-18T23:07:25.535Z,0.93
2022-12-18T23:09:52.463Z,0.94
2022-12-18T23:12:27.811Z,0.94
2022-12-18T23:14:54.669Z,0.96
2022-12-18T23:17:21.220Z,0.98
2022-12-18T23:19:49.321Z,1.00
2022-12-18T23:22:17.270Z,0.95
2022-12-18T23:24:44.215Z,0.92
2022-12-18T23:27:11.841Z,0.94
2022-12-18T23:29:39.423Z,0.98
2022-12-18T23:32:06.157Z,0.98
2022-12-18T23:34:32.861Z,0.99
2022-12-18T23:37:01.068Z,1.00
2022-12-18T23:39:30.163Z,1.03
2022-12-18T23:41:59.193Z,1.02
2022-12-18T23:44:26.274Z,1.01
2022-12-18T23:46:53.001Z,1.02
2022-12-18T23:49:19.769Z,1.04
2022-12-18T23:51:46.449Z,1.05
2022-12-18T23:54:12.999Z,1.06
2022-12-18T23:56:39.599Z,1.03
2022-12-18T23:59:06.295Z,1.04
